Ferry Katsuragi — JI3611 — position and weather

sailwx.info

Track history (hours):
 
Tides and Currents Weather Stations Pressure Air Temp Water Temp Dewpoint Dewpoint Depression Visibility Wind Speed Wind Dir Waves Ship Positions

Ferry Katsuragi

Last reported at 2017-Dec-11 04:00 UTC. Time now 2017-Dec-11 04:10 UTC.
Position N 34°13' E 135°09'.

Length 108 m; draft 4 m.

Type: Passenger vessel. MMSI: 431301245.

Date/timePositionNaut miles runAvg speedWind from/ knotsBaromVisibWave heightAir tempDewpointWater temp
2017-Dec-11 04:00N 34°13' E 135°09'815.1
2017-Dec-11 03:30N 34°10' E 134°60'917.6
2017-Dec-11 03:00N 34°07' E 134°50'1217.1
2017-Dec-11 02:17N 34°03' E 134°36'1 1.2
2017-Dec-11 01:31N 34°03' E 134°35'0 7.8
2017-Dec-11 01:30N 34°03' E 134°35'714.5
2017-Dec-11 01:00N 34°06' E 134°43'816.1
2017-Dec-11 00:30N 34°08' E 134°53'816.1
2017-Dec-11 00:00N 34°12' E 135°01'612.3
2017-Dec-10 23:30N 34°13' E 135°09'0 0.0
2017-Dec-10 23:00N 34°13' E 135°09'3 5.6
2017-Dec-10 22:30N 34°13' E 135°05'714.7
2017-Dec-10 22:00N 34°10' E 134°57'714.7
2017-Dec-10 21:30N 34°07' E 134°49'1114.9
2017-Dec-10 20:45N 34°03' E 134°36'1 1.1
2017-Dec-10 19:52N 34°03' E 134°35'412.4
2017-Dec-10 19:30N 34°04' E 134°40'713.9
2017-Dec-10 19:00N 34°07' E 134°48'713.9
2017-Dec-10 18:30N 34°09' E 134°56'713.9
2017-Dec-10 18:00N 34°12' E 135°04'4 8.5
2017-Dec-10 17:30N 34°13' E 135°09'0 0.0
2017-Dec-10 17:01N 34°13' E 135°09'0 0.0
2017-Dec-10 16:31N 34°13' E 135°09'0 0.0
2017-Dec-10 16:00N 34°13' E 135°09'0 0.0
2017-Dec-10 15:30N 34°13' E 135°09'0 0.0
2017-Dec-10 15:01N 34°13' E 135°09'712.9
2017-Dec-10 14:30N 34°11' E 135°01'714.8
2017-Dec-10 14:00N 34°08' E 134°53'814.8
2017-Dec-10 13:30N 34°05' E 134°45'714.9
2017-Dec-10 13:00N 34°03' E 134°36'1 1.4
2017-Dec-10 12:21N 34°03' E 134°35'512.9
2017-Dec-10 12:00N 34°04' E 134°41'714.5
2017-Dec-10 11:30N 34°06' E 134°49'714.9
2017-Dec-10 11:00N 34°08' E 134°57'714.8
2017-Dec-10 10:30N 34°12' E 135°05'3 6.3
2017-Dec-10 10:00N 34°13' E 135°09'0 0.0
2017-Dec-10 09:30N 34°13' E 135°09'713.8
2017-Dec-10 09:00N 34°11' E 135°01'816.0
2017-Dec-10 08:30N 34°08' E 134°52'916.7
2017-Dec-10 07:58N 34°05' E 134°42'6 5.0
2017-Dec-10 06:51N 34°03' E 134°35'412.0
2017-Dec-10 06:30N 34°04' E 134°40'714.2
2017-Dec-10 06:00N 34°07' E 134°48'714.4
2017-Dec-10 05:30N 34°10' E 134°56'713.7
2017-Dec-10 05:01N 34°12' E 135°03'4 8.6
2017-Dec-10 04:30N 34°13' E 135°09'0 0.1
2017-Dec-10 04:00N 34°13' E 135°09'713.6
2017-Dec-10 03:30N 34°12' E 135°00'816.5
2017-Dec-10 03:00N 34°08' E 134°52'1016.5
2017-Dec-10 02:23N 34°04' E 134°40'4 5.1
2017-Dec-10 01:34N 34°03' E 134°35'1 7.2
2017-Dec-10 01:28N 34°03' E 134°36'613.8
2017-Dec-10 01:00N 34°05' E 134°43'815.4
2017-Dec-10 00:30N 34°08' E 134°52'815.2
2017-Dec-10 00:00N 34°11' E 135°00'714.5
2017-Dec-09 23:30N 34°13' E 135°09'0 0.0
2017-Dec-09 23:00N 34°13' E 135°09'3 6.0
2017-Dec-09 22:31N 34°12' E 135°05'714.6
2017-Dec-09 22:00N 34°09' E 134°57'714.9
2017-Dec-09 21:30N 34°06' E 134°49'1115.0
2017-Dec-09 20:47N 34°03' E 134°36'1 1.2
2017-Dec-09 19:54N 34°03' E 134°35'410.7
2017-Dec-09 19:31N 34°04' E 134°40'713.0
2017-Dec-09 19:00N 34°07' E 134°47'714.0
2017-Dec-09 18:31N 34°09' E 134°55'714.5
2017-Dec-09 18:00N 34°12' E 135°03'5 9.1
2017-Dec-09 17:30N 34°13' E 135°09'0 0.0
2017-Dec-09 17:00N 34°13' E 135°09'0 0.0
2017-Dec-09 16:31N 34°13' E 135°09'0 0.0
2017-Dec-09 16:00N 34°13' E 135°09'0 0.0
2017-Dec-09 15:30N 34°13' E 135°09'0 0.0
2017-Dec-09 15:00N 34°13' E 135°09'510.7
2017-Dec-09 14:31N 34°12' E 135°02'815.7
2017-Dec-09 14:00N 34°09' E 134°54'815.7
2017-Dec-09 13:28N 34°05' E 134°44'715.5
2017-Dec-09 13:00N 34°03' E 134°36'1 1.5
2017-Dec-09 12:22N 34°03' E 134°35'411.2
2017-Dec-09 12:00N 34°04' E 134°40'714.6
2017-Dec-09 11:30N 34°06' E 134°48'714.6
2017-Dec-09 11:00N 34°09' E 134°56'815.1
2017-Dec-09 10:31N 34°12' E 135°05'3 6.7
2017-Dec-09 10:00N 34°13' E 135°09'0 0.1
2017-Dec-09 09:31N 34°13' E 135°09'714.3
2017-Dec-09 09:00N 34°09' E 135°01'816.1
2017-Dec-09 08:30N 34°08' E 134°51'1216.7
2017-Dec-09 07:47N 34°03' E 134°38'2 2.5
2017-Dec-09 06:53N 34°03' E 134°35'411.5
2017-Dec-09 06:30N 34°04' E 134°40'714.6
2017-Dec-09 06:00N 34°07' E 134°49'714.0
2017-Dec-09 05:30N 34°10' E 134°56'713.9
2017-Dec-09 05:00N 34°12' E 135°04'4 8.0
2017-Dec-09 04:30N 34°13' E 135°09'0 0.0
2017-Dec-09 04:00N 34°13' E 135°09'713.5
2017-Dec-09 03:30N 34°11' E 135°01'816.5
2017-Dec-09 03:00N 34°07' E 134°52'1416.5
2017-Dec-09 02:10N 34°03' E 134°36'1 1.6
2017-Dec-09 01:32N 34°03' E 134°35'0 4.9
2017-Dec-09 01:30N 34°03' E 134°35'713.8
2017-Dec-09 01:00N 34°05' E 134°43'815.5
2017-Dec-09 00:31N 34°08' E 134°52'815.7
2017-Dec-09 00:00N 34°11' E 135°00'713.9
2017-Dec-08 23:30N 34°13' E 135°09'0 0.0
2017-Dec-08 23:00N 34°13' E 135°09'3 5.2
2017-Dec-08 22:31N 34°13' E 135°05'814.7
2017-Dec-08 22:00N 34°09' E 134°57'915.1
2017-Dec-08 21:26N 34°06' E 134°48'915.2
2017-Dec-08 20:52N 34°03' E 134°38'2 2.3
2017-Dec-08 19:52N 34°03' E 134°35'411.7
2017-Dec-08 19:30N 34°04' E 134°40'713.6
2017-Dec-08 19:00N 34°06' E 134°48'714.3
2017-Dec-08 18:30N 34°09' E 134°56'714.5
2017-Dec-08 18:01N 34°12' E 135°04'4 8.4
2017-Dec-08 17:30N 34°13' E 135°09'0 0.0
2017-Dec-08 17:01N 34°13' E 135°09'0 0.0
2017-Dec-08 16:30N 34°13' E 135°09'0 0.0
2017-Dec-08 16:00N 34°13' E 135°09'0 0.0
2017-Dec-08 15:30N 34°13' E 135°09'0 0.0
2017-Dec-08 15:01N 34°13' E 135°09'713.5
2017-Dec-08 14:30N 34°11' E 135°01'814.7
2017-Dec-08 13:59N 34°08' E 134°52'814.7
2017-Dec-08 13:28N 34°05' E 134°44'714.5
2017-Dec-08 13:00N 34°03' E 134°36'1 1.4
2017-Dec-08 12:21N 34°03' E 134°35'411.6
2017-Dec-08 12:00N 34°04' E 134°40'814.9
2017-Dec-08 11:30N 34°07' E 134°48'815.7
2017-Dec-08 11:00N 34°09' E 134°57'815.3
2017-Dec-08 10:31N 34°13' E 135°05'3 5.4
2017-Dec-08 10:01N 34°13' E 135°09'0 0.1
2017-Dec-08 09:30N 34°13' E 135°09'713.6
2017-Dec-08 09:01N 34°11' E 135°01'916.7
2017-Dec-08 08:29N 34°07' E 134°51'1316.3
2017-Dec-08 07:40N 34°03' E 134°36'1 0.8
2017-Dec-08 06:52N 34°03' E 134°35'411.9
2017-Dec-08 06:30N 34°04' E 134°40'713.9
2017-Dec-08 06:00N 34°06' E 134°48'714.2
2017-Dec-08 05:30N 34°09' E 134°56'714.4
2017-Dec-08 05:00N 34°12' E 135°04'4 8.0
2017-Dec-08 04:30N 34°13' E 135°09'0 0.1
2017-Dec-08 04:00N 34°13' E 135°09'714.0
2017-Dec-08 03:30N 34°11' E 135°00'816.8
2017-Dec-08 03:00N 34°08' E 134°51'14 9.4
2017-Dec-08 01:31N 34°03' E 134°35'0 7.0
2017-Dec-08 01:29N 34°03' E 134°35'714.2
2017-Dec-08 01:00N 34°05' E 134°43'815.6
2017-Dec-08 00:31N 34°09' E 134°52'815.9
2017-Dec-08 00:00N 34°11' E 135°01'713.5
2017-Dec-07 23:30N 34°13' E 135°09'0 0.0
2017-Dec-07 23:00N 34°13' E 135°09'3 5.2
2017-Dec-07 22:30N 34°13' E 135°06'714.8
2017-Dec-07 22:00N 34°09' E 134°58'815.1
2017-Dec-07 21:30N 34°07' E 134°49'1115.2
2017-Dec-07 20:45N 34°03' E 134°36'1 3.3
2017-Dec-07 20:28N 34°03' E 134°35'0 0.2
2017-Dec-07 19:56N 34°03' E 134°35'511.8
2017-Dec-07 19:30N 34°04' E 134°41'713.4
2017-Dec-07 19:00N 34°07' E 134°49'713.6
2017-Dec-07 18:30N 34°09' E 134°56'713.5
2017-Dec-07 18:00N 34°12' E 135°04'4 8.5
2017-Dec-07 17:30N 34°13' E 135°09'0 0.0
2017-Dec-07 17:00N 34°13' E 135°09'0 0.0
2017-Dec-07 16:30N 34°13' E 135°09'0 0.0
2017-Dec-07 16:00N 34°13' E 135°09'0 0.0
2017-Dec-07 15:30N 34°13' E 135°09'1 1.2
2017-Dec-07 15:01N 34°13' E 135°08'714.3
2017-Dec-07 14:30N 34°12' E 134°59'714.2
2017-Dec-07 14:00N 34°08' E 134°52'713.9
2017-Dec-07 13:30N 34°05' E 134°44'714.2
2017-Dec-07 13:00N 34°03' E 134°36'1 1.5
2017-Dec-07 12:22N 34°03' E 134°35'513.2
2017-Dec-07 12:00N 34°04' E 134°41'815.8
2017-Dec-07 11:30N 34°08' E 134°49'815.2
2017-Dec-07 11:00N 34°12' E 134°57'713.0
2017-Dec-07 10:30N 34°12' E 135°05'3 6.4
2017-Dec-07 10:00N 34°13' E 135°09'0 0.6
2017-Dec-07 09:30N 34°13' E 135°08'815.6
2017-Dec-07 09:00N 34°11' E 134°59'816.7
2017-Dec-07 08:30N 34°07' E 134°50'1016.2
2017-Dec-07 07:54N 34°04' E 134°39'3 3.1
2017-Dec-07 06:52N 34°03' E 134°35'412.1
2017-Dec-07 06:30N 34°04' E 134°40'714.5
2017-Dec-07 06:00N 34°07' E 134°48'714.5
2017-Dec-07 05:30N 34°11' E 134°56'613.1
2017-Dec-07 05:01N 34°12' E 135°04'4 8.4
2017-Dec-07 04:30N 34°13' E 135°09'0 0.1
2017-Dec-07 04:01N 34°13' E 135°09'714.5
2017-Dec-07 03:30N 34°12' E 134°60'816.5
2017-Dec-07 03:01N 34°08' E 134°51'1216.5
2017-Dec-07 02:19N 34°04' E 134°38'3 3.4
2017-Dec-07 01:29N 34°03' E 134°35'713.6
2017-Dec-07 01:00N 34°05' E 134°43'815.7
2017-Dec-07 00:30N 34°08' E 134°51'815.5
2017-Dec-07 00:00N 34°11' E 134°60'714.8
2017-Dec-06 23:30N 34°13' E 135°09'0 0.0
2017-Dec-06 23:00N 34°13' E 135°09'3 6.5
2017-Dec-06 22:30N 34°12' E 135°05'714.6
2017-Dec-06 22:00N 34°09' E 134°57'714.9
2017-Dec-06 21:30N 34°07' E 134°48'1114.9
2017-Dec-06 20:47N 34°03' E 134°36'  
2017-Dec-04 10:30N 34°12' E 135°05'3 6.6
2017-Dec-04 10:01N 34°13' E 135°09'1 1.2
2017-Dec-04 09:31N 34°13' E 135°08'714.6
2017-Dec-04 09:00N 34°10' E 134°59'815.7
2017-Dec-04 08:28N 34°07' E 134°50'1215.0
2017-Dec-04 07:39N 34°03' E 134°36'1 1.3
2017-Dec-04 06:57N 34°03' E 134°35'511.7
2017-Dec-04 06:30N 34°04' E 134°41'713.3
2017-Dec-04 06:00N 34°07' E 134°49'713.7
2017-Dec-04 05:30N 34°09' E 134°56'612.9
2017-Dec-04 05:00N 34°12' E 135°04'4 8.7
2017-Dec-04 04:30N 34°13' E 135°09'0 0.1
2017-Dec-04 04:00N 34°13' E 135°09'714.0
2017-Dec-04 03:30N 34°11' E 135°01'815.6
2017-Dec-04 03:00N 34°07' E 134°52'816.0
2017-Dec-04 02:29N 34°05' E 134°42'6 5.7
2017-Dec-04 01:28N 34°03' E 134°36'613.8
2017-Dec-04 01:00N 34°05' E 134°43'815.4
2017-Dec-04 00:30N 34°08' E 134°52'815.7
2017-Dec-04 00:01N 34°11' E 135°00'714.4
2017-Dec-03 23:30N 34°13' E 135°09'0 0.0
2017-Dec-03 23:00N 34°13' E 135°09'3 6.3
2017-Dec-03 22:30N 34°13' E 135°05'714.9
2017-Dec-03 22:00N 34°10' E 134°57'915.3
2017-Dec-03 21:26N 34°06' E 134°47'815.2
2017-Dec-03 20:54N 34°03' E 134°38'2 2.2
2017-Dec-03 19:52N 34°03' E 134°35'411.0
2017-Dec-03 19:30N 34°04' E 134°40'713.8
2017-Dec-03 19:00N 34°07' E 134°47'714.1
2017-Dec-03 18:30N 34°09' E 134°55'714.3
2017-Dec-03 18:00N 34°12' E 135°03'5 9.0
2017-Dec-03 17:30N 34°13' E 135°09'0 0.0
2017-Dec-03 17:00N 34°13' E 135°09'0 0.0
2017-Dec-03 16:30N 34°13' E 135°09'0 0.0
2017-Dec-03 16:00N 34°13' E 135°09'0 0.0
2017-Dec-03 15:30N 34°13' E 135°09'0 0.9
2017-Dec-03 15:00N 34°13' E 135°08'714.0
2017-Dec-03 14:30N 34°10' E 135°00'714.1
2017-Dec-03 14:00N 34°07' E 134°52'714.0
2017-Dec-03 13:30N 34°05' E 134°44'714.6
2017-Dec-03 13:01N 34°03' E 134°36'1 1.3
2017-Dec-03 12:21N 34°03' E 134°35'412.6
2017-Dec-03 12:01N 34°04' E 134°40'814.8
2017-Dec-03 11:30N 34°07' E 134°48'815.2
2017-Dec-03 11:00N 34°10' E 134°57'815.0
2017-Dec-03 10:31N 34°12' E 135°05'3 5.5
2017-Dec-03 10:00N 34°13' E 135°09'0 0.1
2017-Dec-03 09:30N 34°13' E 135°09'714.2
2017-Dec-03 09:00N 34°11' E 135°00'816.4
2017-Dec-03 08:30N 34°07' E 134°51'1216.3
2017-Dec-03 07:45N 34°03' E 134°37'2 2.2
2017-Dec-03 06:53N 34°03' E 134°35'411.1
2017-Dec-03 06:30N 34°04' E 134°40'713.8
2017-Dec-03 06:00N 34°06' E 134°48'714.1
2017-Dec-03 05:30N 34°09' E 134°56'714.2
2017-Dec-03 05:01N 34°12' E 135°04'4 8.7
2017-Dec-03 04:30N 34°13' E 135°09'0 0.1
2017-Dec-03 04:01N 34°13' E 135°09'713.4
2017-Dec-03 03:30N 34°11' E 135°01'916.3
2017-Dec-03 02:57N 34°07' E 134°51'1216.7
2017-Dec-03 02:15N 34°03' E 134°38'2 3.0
2017-Dec-03 01:32N 34°03' E 134°35'1 8.2
2017-Dec-03 01:28N 34°03' E 134°36'714.4
2017-Dec-03 01:01N 34°05' E 134°43'815.5
2017-Dec-03 00:31N 34°08' E 134°52'815.8
2017-Dec-03 00:00N 34°12' E 135°00'713.7
2017-Dec-02 23:30N 34°13' E 135°09'0 0.0
2017-Dec-02 23:00N 34°13' E 135°09'3 5.6
2017-Dec-02 22:30N 34°13' E 135°05'714.4
2017-Dec-02 22:00N 34°10' E 134°57'815.2
2017-Dec-02 21:30N 34°07' E 134°49'1115.3
2017-Dec-02 20:46N 34°03' E 134°36'1 1.0
2017-Dec-02 19:50N 34°03' E 134°35'411.7
2017-Dec-02 19:30N 34°04' E 134°40'713.7
2017-Dec-02 19:00N 34°07' E 134°47'714.3
2017-Dec-02 18:30N 34°09' E 134°55'714.4
2017-Dec-02 18:01N 34°12' E 135°03'4 8.8
2017-Dec-02 17:30N 34°13' E 135°09'0 0.0
2017-Dec-02 17:00N 34°13' E 135°09'0 0.0
2017-Dec-02 16:30N 34°13' E 135°09'0 0.0
2017-Dec-02 16:01N 34°13' E 135°09'0 0.0
2017-Dec-02 15:31N 34°13' E 135°09'1 1.2
2017-Dec-02 15:01N 34°13' E 135°08'714.8
2017-Dec-02 14:31N 34°10' E 134°60'713.1
2017-Dec-02 14:00N 34°08' E 134°52'814.2
2017-Dec-02 13:28N 34°05' E 134°44'714.3
2017-Dec-02 13:00N 34°03' E 134°36'1 1.2
2017-Dec-02 12:20N 34°03' E 134°35'412.1
2017-Dec-02 12:00N 34°04' E 134°40'714.7
2017-Dec-02 11:30N 34°07' E 134°48'815.1
2017-Dec-02 11:00N 34°10' E 134°56'714.8
2017-Dec-02 10:31N 34°12' E 135°05'3 6.5
2017-Dec-02 10:00N 34°13' E 135°09'0 0.1
2017-Dec-02 09:30N 34°13' E 135°09'713.8
2017-Dec-02 09:00N 34°11' E 135°00'816.7
2017-Dec-02 08:31N 34°08' E 134°51'1016.5
2017-Dec-02 07:54N 34°04' E 134°40'4 3.6
2017-Dec-02 06:51N 34°03' E 134°36'513.2
2017-Dec-02 06:30N 34°04' E 134°41'713.6
2017-Dec-02 06:00N 34°07' E 134°49'714.5
2017-Dec-02 05:30N 34°10' E 134°57'713.7
2017-Dec-02 05:00N 34°12' E 135°04'3 7.0
2017-Dec-02 04:30N 34°13' E 135°09'0 0.1
2017-Dec-02 04:01N 34°13' E 135°09'714.7
2017-Dec-02 03:30N 34°11' E 135°00'816.1
2017-Dec-02 03:00N 34°07' E 134°52'1416.3
2017-Dec-02 02:10N 34°03' E 134°36'1 1.1
2017-Dec-02 01:30N 34°03' E 134°35'713.3
2017-Dec-02 01:00N 34°05' E 134°43'815.4
2017-Dec-02 00:30N 34°07' E 134°52'815.8
2017-Dec-02 00:01N 34°10' E 135°01'714.4
2017-Dec-01 23:30N 34°13' E 135°09'0 0.0
2017-Dec-01 23:00N 34°13' E 135°09'3 5.3
2017-Dec-01 22:31N 34°13' E 135°05'714.6
2017-Dec-01 22:00N 34°10' E 134°57'815.0
2017-Dec-01 21:29N 34°07' E 134°48'1115.1
2017-Dec-01 20:45N 34°03' E 134°36'1 0.9
2017-Dec-01 19:52N 34°03' E 134°35'411.8
2017-Dec-01 19:30N 34°04' E 134°40'713.7
2017-Dec-01 19:00N 34°07' E 134°48'714.2
2017-Dec-01 18:30N 34°09' E 134°56'714.1
2017-Dec-01 18:01N 34°12' E 135°04'4 8.6
2017-Dec-01 17:30N 34°13' E 135°09'0 0.0
2017-Dec-01 17:01N 34°13' E 135°09'0 0.0
2017-Dec-01 16:31N 34°13' E 135°09'0 0.0
2017-Dec-01 16:01N 34°13' E 135°09'0 0.0
2017-Dec-01 15:30N 34°13' E 135°09'0 0.0
2017-Dec-01 15:01N 34°13' E 135°09'4 8.3
2017-Dec-01 14:30N 34°12' E 135°04'816.1
2017-Dec-01 14:01N 34°10' E 134°54'916.3
2017-Dec-01 13:29N 34°06' E 134°45'816.4
2017-Dec-01 12:59N 34°03' E 134°36'1 1.3
2017-Dec-01 12:21N 34°03' E 134°35'412.4
2017-Dec-01 12:00N 34°04' E 134°40'714.5
2017-Dec-01 11:31N 34°07' E 134°48'714.8
2017-Dec-01 11:00N 34°09' E 134°57'714.9
2017-Dec-01 10:30N 34°12' E 135°05'3 6.4
2017-Dec-01 10:00N 34°13' E 135°09'0 0.1
2017-Dec-01 09:31N 34°13' E 135°09'714.3
2017-Dec-01 09:01N 34°10' E 135°01'1116.4
2017-Dec-01 08:21N 34°06' E 134°49'716.3
2017-Dec-01 07:54N 34°04' E 134°40'4 4.0
2017-Dec-01 06:52N 34°03' E 134°35'512.3
2017-Dec-01 06:30N 34°04' E 134°41'714.8
2017-Dec-01 06:00N 34°07' E 134°48'714.3
2017-Dec-01 05:30N 34°11' E 134°56'713.1
2017-Dec-01 05:00N 34°13' E 135°04'4 8.3
2017-Dec-01 04:30N 34°13' E 135°09'0 0.0
2017-Dec-01 04:00N 34°13' E 135°09'  
Track history (hours):
 
Tides and Currents Weather Stations Pressure Air Temp Water Temp Dewpoint Dewpoint Depression Visibility Wind Speed Wind Dir Waves Ship Positions

Ferry Katsuragi

Last reported at 2017-Dec-11 04:00 UTC. Time now 2017-Dec-11 04:10 UTC.
Position N 34°13' E 135°09'.

Length 108 m; draft 4 m.

Type: Passenger vessel. MMSI: 431301245.

Date/timePositionNaut miles runAvg speedWind from/ knotsBaromVisibWave heightAir tempDewpointWater temp
2017-Dec-11 04:00N 34°13' E 135°09'815.1
2017-Dec-11 03:30N 34°10' E 134°60'917.6
2017-Dec-11 03:00N 34°07' E 134°50'1217.1
2017-Dec-11 02:17N 34°03' E 134°36'1 1.2
2017-Dec-11 01:31N 34°03' E 134°35'0 7.8
2017-Dec-11 01:30N 34°03' E 134°35'714.5
2017-Dec-11 01:00N 34°06' E 134°43'816.1
2017-Dec-11 00:30N 34°08' E 134°53'816.1
2017-Dec-11 00:00N 34°12' E 135°01'612.3
2017-Dec-10 23:30N 34°13' E 135°09'0 0.0
2017-Dec-10 23:00N 34°13' E 135°09'3 5.6
2017-Dec-10 22:30N 34°13' E 135°05'714.7
2017-Dec-10 22:00N 34°10' E 134°57'714.7
2017-Dec-10 21:30N 34°07' E 134°49'1114.9
2017-Dec-10 20:45N 34°03' E 134°36'1 1.1
2017-Dec-10 19:52N 34°03' E 134°35'412.4
2017-Dec-10 19:30N 34°04' E 134°40'713.9
2017-Dec-10 19:00N 34°07' E 134°48'713.9
2017-Dec-10 18:30N 34°09' E 134°56'713.9
2017-Dec-10 18:00N 34°12' E 135°04'4 8.5
2017-Dec-10 17:30N 34°13' E 135°09'0 0.0
2017-Dec-10 17:01N 34°13' E 135°09'0 0.0
2017-Dec-10 16:31N 34°13' E 135°09'0 0.0
2017-Dec-10 16:00N 34°13' E 135°09'0 0.0
2017-Dec-10 15:30N 34°13' E 135°09'0 0.0
2017-Dec-10 15:01N 34°13' E 135°09'712.9
2017-Dec-10 14:30N 34°11' E 135°01'714.8
2017-Dec-10 14:00N 34°08' E 134°53'814.8
2017-Dec-10 13:30N 34°05' E 134°45'714.9
2017-Dec-10 13:00N 34°03' E 134°36'1 1.4
2017-Dec-10 12:21N 34°03' E 134°35'512.9
2017-Dec-10 12:00N 34°04' E 134°41'714.5
2017-Dec-10 11:30N 34°06' E 134°49'714.9
2017-Dec-10 11:00N 34°08' E 134°57'714.8
2017-Dec-10 10:30N 34°12' E 135°05'3 6.3
2017-Dec-10 10:00N 34°13' E 135°09'0 0.0
2017-Dec-10 09:30N 34°13' E 135°09'713.8
2017-Dec-10 09:00N 34°11' E 135°01'816.0
2017-Dec-10 08:30N 34°08' E 134°52'916.7
2017-Dec-10 07:58N 34°05' E 134°42'6 5.0
2017-Dec-10 06:51N 34°03' E 134°35'412.0
2017-Dec-10 06:30N 34°04' E 134°40'714.2
2017-Dec-10 06:00N 34°07' E 134°48'714.4
2017-Dec-10 05:30N 34°10' E 134°56'713.7
2017-Dec-10 05:01N 34°12' E 135°03'4 8.6
2017-Dec-10 04:30N 34°13' E 135°09'0 0.1
2017-Dec-10 04:00N 34°13' E 135°09'713.6
2017-Dec-10 03:30N 34°12' E 135°00'816.5
2017-Dec-10 03:00N 34°08' E 134°52'1016.5
2017-Dec-10 02:23N 34°04' E 134°40'4 5.1
2017-Dec-10 01:34N 34°03' E 134°35'1 7.2
2017-Dec-10 01:28N 34°03' E 134°36'613.8
2017-Dec-10 01:00N 34°05' E 134°43'815.4
2017-Dec-10 00:30N 34°08' E 134°52'815.2
2017-Dec-10 00:00N 34°11' E 135°00'714.5
2017-Dec-09 23:30N 34°13' E 135°09'0 0.0
2017-Dec-09 23:00N 34°13' E 135°09'3 6.0
2017-Dec-09 22:31N 34°12' E 135°05'714.6
2017-Dec-09 22:00N 34°09' E 134°57'714.9
2017-Dec-09 21:30N 34°06' E 134°49'1115.0
2017-Dec-09 20:47N 34°03' E 134°36'1 1.2
2017-Dec-09 19:54N 34°03' E 134°35'410.7
2017-Dec-09 19:31N 34°04' E 134°40'713.0
2017-Dec-09 19:00N 34°07' E 134°47'714.0
2017-Dec-09 18:31N 34°09' E 134°55'714.5
2017-Dec-09 18:00N 34°12' E 135°03'5 9.1
2017-Dec-09 17:30N 34°13' E 135°09'0 0.0
2017-Dec-09 17:00N 34°13' E 135°09'0 0.0
2017-Dec-09 16:31N 34°13' E 135°09'0 0.0
2017-Dec-09 16:00N 34°13' E 135°09'0 0.0
2017-Dec-09 15:30N 34°13' E 135°09'0 0.0
2017-Dec-09 15:00N 34°13' E 135°09'510.7
2017-Dec-09 14:31N 34°12' E 135°02'815.7
2017-Dec-09 14:00N 34°09' E 134°54'815.7
2017-Dec-09 13:28N 34°05' E 134°44'715.5
2017-Dec-09 13:00N 34°03' E 134°36'1 1.5
2017-Dec-09 12:22N 34°03' E 134°35'411.2
2017-Dec-09 12:00N 34°04' E 134°40'714.6
2017-Dec-09 11:30N 34°06' E 134°48'714.6
2017-Dec-09 11:00N 34°09' E 134°56'815.1
2017-Dec-09 10:31N 34°12' E 135°05'3 6.7
2017-Dec-09 10:00N 34°13' E 135°09'0 0.1
2017-Dec-09 09:31N 34°13' E 135°09'714.3
2017-Dec-09 09:00N 34°09' E 135°01'816.1
2017-Dec-09 08:30N 34°08' E 134°51'1216.7
2017-Dec-09 07:47N 34°03' E 134°38'2 2.5
2017-Dec-09 06:53N 34°03' E 134°35'411.5
2017-Dec-09 06:30N 34°04' E 134°40'714.6
2017-Dec-09 06:00N 34°07' E 134°49'714.0
2017-Dec-09 05:30N 34°10' E 134°56'713.9
2017-Dec-09 05:00N 34°12' E 135°04'4 8.0
2017-Dec-09 04:30N 34°13' E 135°09'0 0.0
2017-Dec-09 04:00N 34°13' E 135°09'713.5
2017-Dec-09 03:30N 34°11' E 135°01'816.5
2017-Dec-09 03:00N 34°07' E 134°52'1416.5
2017-Dec-09 02:10N 34°03' E 134°36'1 1.6
2017-Dec-09 01:32N 34°03' E 134°35'0 4.9
2017-Dec-09 01:30N 34°03' E 134°35'713.8
2017-Dec-09 01:00N 34°05' E 134°43'815.5
2017-Dec-09 00:31N 34°08' E 134°52'815.7
2017-Dec-09 00:00N 34°11' E 135°00'713.9
2017-Dec-08 23:30N 34°13' E 135°09'0 0.0
2017-Dec-08 23:00N 34°13' E 135°09'3 5.2
2017-Dec-08 22:31N 34°13' E 135°05'814.7
2017-Dec-08 22:00N 34°09' E 134°57'915.1
2017-Dec-08 21:26N 34°06' E 134°48'915.2
2017-Dec-08 20:52N 34°03' E 134°38'2 2.3
2017-Dec-08 19:52N 34°03' E 134°35'411.7
2017-Dec-08 19:30N 34°04' E 134°40'713.6
2017-Dec-08 19:00N 34°06' E 134°48'714.3
2017-Dec-08 18:30N 34°09' E 134°56'714.5
2017-Dec-08 18:01N 34°12' E 135°04'4 8.4
2017-Dec-08 17:30N 34°13' E 135°09'0 0.0
2017-Dec-08 17:01N 34°13' E 135°09'0 0.0
2017-Dec-08 16:30N 34°13' E 135°09'0 0.0
2017-Dec-08 16:00N 34°13' E 135°09'0 0.0
2017-Dec-08 15:30N 34°13' E 135°09'0 0.0
2017-Dec-08 15:01N 34°13' E 135°09'713.5
2017-Dec-08 14:30N 34°11' E 135°01'814.7
2017-Dec-08 13:59N 34°08' E 134°52'814.7
2017-Dec-08 13:28N 34°05' E 134°44'714.5
2017-Dec-08 13:00N 34°03' E 134°36'1 1.4
2017-Dec-08 12:21N 34°03' E 134°35'411.6
2017-Dec-08 12:00N 34°04' E 134°40'814.9
2017-Dec-08 11:30N 34°07' E 134°48'815.7
2017-Dec-08 11:00N 34°09' E 134°57'815.3
2017-Dec-08 10:31N 34°13' E 135°05'3 5.4
2017-Dec-08 10:01N 34°13' E 135°09'0 0.1
2017-Dec-08 09:30N 34°13' E 135°09'713.6
2017-Dec-08 09:01N 34°11' E 135°01'916.7
2017-Dec-08 08:29N 34°07' E 134°51'1316.3
2017-Dec-08 07:40N 34°03' E 134°36'1 0.8
2017-Dec-08 06:52N 34°03' E 134°35'411.9
2017-Dec-08 06:30N 34°04' E 134°40'713.9
2017-Dec-08 06:00N 34°06' E 134°48'714.2
2017-Dec-08 05:30N 34°09' E 134°56'714.4
2017-Dec-08 05:00N 34°12' E 135°04'4 8.0
2017-Dec-08 04:30N 34°13' E 135°09'0 0.1
2017-Dec-08 04:00N 34°13' E 135°09'714.0
2017-Dec-08 03:30N 34°11' E 135°00'816.8
2017-Dec-08 03:00N 34°08' E 134°51'14 9.4
2017-Dec-08 01:31N 34°03' E 134°35'0 7.0
2017-Dec-08 01:29N 34°03' E 134°35'714.2
2017-Dec-08 01:00N 34°05' E 134°43'815.6
2017-Dec-08 00:31N 34°09' E 134°52'815.9
2017-Dec-08 00:00N 34°11' E 135°01'713.5
2017-Dec-07 23:30N 34°13' E 135°09'0 0.0
2017-Dec-07 23:00N 34°13' E 135°09'3 5.2
2017-Dec-07 22:30N 34°13' E 135°06'714.8
2017-Dec-07 22:00N 34°09' E 134°58'815.1
2017-Dec-07 21:30N 34°07' E 134°49'1115.2
2017-Dec-07 20:45N 34°03' E 134°36'1 3.3
2017-Dec-07 20:28N 34°03' E 134°35'0 0.2
2017-Dec-07 19:56N 34°03' E 134°35'511.8
2017-Dec-07 19:30N 34°04' E 134°41'713.4
2017-Dec-07 19:00N 34°07' E 134°49'713.6
2017-Dec-07 18:30N 34°09' E 134°56'713.5
2017-Dec-07 18:00N 34°12' E 135°04'4 8.5
2017-Dec-07 17:30N 34°13' E 135°09'0 0.0
2017-Dec-07 17:00N 34°13' E 135°09'0 0.0
2017-Dec-07 16:30N 34°13' E 135°09'0 0.0
2017-Dec-07 16:00N 34°13' E 135°09'0 0.0
2017-Dec-07 15:30N 34°13' E 135°09'1 1.2
2017-Dec-07 15:01N 34°13' E 135°08'714.3
2017-Dec-07 14:30N 34°12' E 134°59'714.2
2017-Dec-07 14:00N 34°08' E 134°52'713.9
2017-Dec-07 13:30N 34°05' E 134°44'714.2
2017-Dec-07 13:00N 34°03' E 134°36'1 1.5
2017-Dec-07 12:22N 34°03' E 134°35'513.2
2017-Dec-07 12:00N 34°04' E 134°41'815.8
2017-Dec-07 11:30N 34°08' E 134°49'815.2
2017-Dec-07 11:00N 34°12' E 134°57'713.0
2017-Dec-07 10:30N 34°12' E 135°05'3 6.4
2017-Dec-07 10:00N 34°13' E 135°09'0 0.6
2017-Dec-07 09:30N 34°13' E 135°08'815.6
2017-Dec-07 09:00N 34°11' E 134°59'816.7
2017-Dec-07 08:30N 34°07' E 134°50'1016.2
2017-Dec-07 07:54N 34°04' E 134°39'3 3.1
2017-Dec-07 06:52N 34°03' E 134°35'412.1
2017-Dec-07 06:30N 34°04' E 134°40'714.5
2017-Dec-07 06:00N 34°07' E 134°48'714.5
2017-Dec-07 05:30N 34°11' E 134°56'613.1
2017-Dec-07 05:01N 34°12' E 135°04'4 8.4
2017-Dec-07 04:30N 34°13' E 135°09'0 0.1
2017-Dec-07 04:01N 34°13' E 135°09'714.5
2017-Dec-07 03:30N 34°12' E 134°60'816.5
2017-Dec-07 03:01N 34°08' E 134°51'1216.5
2017-Dec-07 02:19N 34°04' E 134°38'3 3.4
2017-Dec-07 01:29N 34°03' E 134°35'713.6
2017-Dec-07 01:00N 34°05' E 134°43'815.7
2017-Dec-07 00:30N 34°08' E 134°51'815.5
2017-Dec-07 00:00N 34°11' E 134°60'714.8
2017-Dec-06 23:30N 34°13' E 135°09'0 0.0
2017-Dec-06 23:00N 34°13' E 135°09'3 6.5
2017-Dec-06 22:30N 34°12' E 135°05'714.6
2017-Dec-06 22:00N 34°09' E 134°57'714.9
2017-Dec-06 21:30N 34°07' E 134°48'1114.9
2017-Dec-06 20:47N 34°03' E 134°36'  
2017-Dec-04 10:30N 34°12' E 135°05'3 6.6
2017-Dec-04 10:01N 34°13' E 135°09'1 1.2
2017-Dec-04 09:31N 34°13' E 135°08'714.6
2017-Dec-04 09:00N 34°10' E 134°59'815.7
2017-Dec-04 08:28N 34°07' E 134°50'1215.0
2017-Dec-04 07:39N 34°03' E 134°36'1 1.3
2017-Dec-04 06:57N 34°03' E 134°35'511.7
2017-Dec-04 06:30N 34°04' E 134°41'713.3
2017-Dec-04 06:00N 34°07' E 134°49'713.7
2017-Dec-04 05:30N 34°09' E 134°56'612.9
2017-Dec-04 05:00N 34°12' E 135°04'4 8.7
2017-Dec-04 04:30N 34°13' E 135°09'0 0.1
2017-Dec-04 04:00N 34°13' E 135°09'714.0
2017-Dec-04 03:30N 34°11' E 135°01'815.6
2017-Dec-04 03:00N 34°07' E 134°52'816.0
2017-Dec-04 02:29N 34°05' E 134°42'6 5.7
2017-Dec-04 01:28N 34°03' E 134°36'613.8
2017-Dec-04 01:00N 34°05' E 134°43'815.4
2017-Dec-04 00:30N 34°08' E 134°52'815.7
2017-Dec-04 00:01N 34°11' E 135°00'714.4
2017-Dec-03 23:30N 34°13' E 135°09'0 0.0
2017-Dec-03 23:00N 34°13' E 135°09'3 6.3
2017-Dec-03 22:30N 34°13' E 135°05'714.9
2017-Dec-03 22:00N 34°10' E 134°57'915.3
2017-Dec-03 21:26N 34°06' E 134°47'815.2
2017-Dec-03 20:54N 34°03' E 134°38'2 2.2
2017-Dec-03 19:52N 34°03' E 134°35'411.0
2017-Dec-03 19:30N 34°04' E 134°40'713.8
2017-Dec-03 19:00N 34°07' E 134°47'714.1
2017-Dec-03 18:30N 34°09' E 134°55'714.3
2017-Dec-03 18:00N 34°12' E 135°03'5 9.0
2017-Dec-03 17:30N 34°13' E 135°09'0 0.0
2017-Dec-03 17:00N 34°13' E 135°09'0 0.0
2017-Dec-03 16:30N 34°13' E 135°09'0 0.0
2017-Dec-03 16:00N 34°13' E 135°09'0 0.0
2017-Dec-03 15:30N 34°13' E 135°09'0 0.9
2017-Dec-03 15:00N 34°13' E 135°08'714.0
2017-Dec-03 14:30N 34°10' E 135°00'714.1
2017-Dec-03 14:00N 34°07' E 134°52'714.0
2017-Dec-03 13:30N 34°05' E 134°44'714.6
2017-Dec-03 13:01N 34°03' E 134°36'1 1.3
2017-Dec-03 12:21N 34°03' E 134°35'412.6
2017-Dec-03 12:01N 34°04' E 134°40'814.8
2017-Dec-03 11:30N 34°07' E 134°48'815.2
2017-Dec-03 11:00N 34°10' E 134°57'815.0
2017-Dec-03 10:31N 34°12' E 135°05'3 5.5
2017-Dec-03 10:00N 34°13' E 135°09'0 0.1
2017-Dec-03 09:30N 34°13' E 135°09'714.2
2017-Dec-03 09:00N 34°11' E 135°00'816.4
2017-Dec-03 08:30N 34°07' E 134°51'1216.3
2017-Dec-03 07:45N 34°03' E 134°37'2 2.2
2017-Dec-03 06:53N 34°03' E 134°35'411.1
2017-Dec-03 06:30N 34°04' E 134°40'713.8
2017-Dec-03 06:00N 34°06' E 134°48'714.1
2017-Dec-03 05:30N 34°09' E 134°56'714.2
2017-Dec-03 05:01N 34°12' E 135°04'4 8.7
2017-Dec-03 04:30N 34°13' E 135°09'0 0.1
2017-Dec-03 04:01N 34°13' E 135°09'713.4
2017-Dec-03 03:30N 34°11' E 135°01'916.3
2017-Dec-03 02:57N 34°07' E 134°51'1216.7
2017-Dec-03 02:15N 34°03' E 134°38'2 3.0
2017-Dec-03 01:32N 34°03' E 134°35'1 8.2
2017-Dec-03 01:28N 34°03' E 134°36'714.4
2017-Dec-03 01:01N 34°05' E 134°43'815.5
2017-Dec-03 00:31N 34°08' E 134°52'815.8
2017-Dec-03 00:00N 34°12' E 135°00'713.7
2017-Dec-02 23:30N 34°13' E 135°09'0 0.0
2017-Dec-02 23:00N 34°13' E 135°09'3 5.6
2017-Dec-02 22:30N 34°13' E 135°05'714.4
2017-Dec-02 22:00N 34°10' E 134°57'815.2
2017-Dec-02 21:30N 34°07' E 134°49'1115.3
2017-Dec-02 20:46N 34°03' E 134°36'1 1.0
2017-Dec-02 19:50N 34°03' E 134°35'411.7
2017-Dec-02 19:30N 34°04' E 134°40'713.7
2017-Dec-02 19:00N 34°07' E 134°47'714.3
2017-Dec-02 18:30N 34°09' E 134°55'714.4
2017-Dec-02 18:01N 34°12' E 135°03'4 8.8
2017-Dec-02 17:30N 34°13' E 135°09'0 0.0
2017-Dec-02 17:00N 34°13' E 135°09'0 0.0
2017-Dec-02 16:30N 34°13' E 135°09'0 0.0
2017-Dec-02 16:01N 34°13' E 135°09'0 0.0
2017-Dec-02 15:31N 34°13' E 135°09'1 1.2
2017-Dec-02 15:01N 34°13' E 135°08'714.8
2017-Dec-02 14:31N 34°10' E 134°60'713.1
2017-Dec-02 14:00N 34°08' E 134°52'814.2
2017-Dec-02 13:28N 34°05' E 134°44'714.3
2017-Dec-02 13:00N 34°03' E 134°36'1 1.2
2017-Dec-02 12:20N 34°03' E 134°35'412.1
2017-Dec-02 12:00N 34°04' E 134°40'714.7
2017-Dec-02 11:30N 34°07' E 134°48'815.1
2017-Dec-02 11:00N 34°10' E 134°56'714.8
2017-Dec-02 10:31N 34°12' E 135°05'3 6.5
2017-Dec-02 10:00N 34°13' E 135°09'0 0.1
2017-Dec-02 09:30N 34°13' E 135°09'713.8
2017-Dec-02 09:00N 34°11' E 135°00'816.7
2017-Dec-02 08:31N 34°08' E 134°51'1016.5
2017-Dec-02 07:54N 34°04' E 134°40'4 3.6
2017-Dec-02 06:51N 34°03' E 134°36'513.2
2017-Dec-02 06:30N 34°04' E 134°41'713.6
2017-Dec-02 06:00N 34°07' E 134°49'714.5
2017-Dec-02 05:30N 34°10' E 134°57'713.7
2017-Dec-02 05:00N 34°12' E 135°04'3 7.0
2017-Dec-02 04:30N 34°13' E 135°09'0 0.1
2017-Dec-02 04:01N 34°13' E 135°09'714.7
2017-Dec-02 03:30N 34°11' E 135°00'816.1
2017-Dec-02 03:00N 34°07' E 134°52'1416.3
2017-Dec-02 02:10N 34°03' E 134°36'1 1.1
2017-Dec-02 01:30N 34°03' E 134°35'713.3
2017-Dec-02 01:00N 34°05' E 134°43'815.4
2017-Dec-02 00:30N 34°07' E 134°52'815.8
2017-Dec-02 00:01N 34°10' E 135°01'714.4
2017-Dec-01 23:30N 34°13' E 135°09'0 0.0
2017-Dec-01 23:00N 34°13' E 135°09'3 5.3
2017-Dec-01 22:31N 34°13' E 135°05'714.6
2017-Dec-01 22:00N 34°10' E 134°57'815.0
2017-Dec-01 21:29N 34°07' E 134°48'1115.1
2017-Dec-01 20:45N 34°03' E 134°36'1 0.9
2017-Dec-01 19:52N 34°03' E 134°35'411.8
2017-Dec-01 19:30N 34°04' E 134°40'713.7
2017-Dec-01 19:00N 34°07' E 134°48'714.2
2017-Dec-01 18:30N 34°09' E 134°56'714.1
2017-Dec-01 18:01N 34°12' E 135°04'4 8.6
2017-Dec-01 17:30N 34°13' E 135°09'0 0.0
2017-Dec-01 17:01N 34°13' E 135°09'0 0.0
2017-Dec-01 16:31N 34°13' E 135°09'0 0.0
2017-Dec-01 16:01N 34°13' E 135°09'0 0.0
2017-Dec-01 15:30N 34°13' E 135°09'0 0.0
2017-Dec-01 15:01N 34°13' E 135°09'4 8.3
2017-Dec-01 14:30N 34°12' E 135°04'816.1
2017-Dec-01 14:01N 34°10' E 134°54'916.3
2017-Dec-01 13:29N 34°06' E 134°45'816.4
2017-Dec-01 12:59N 34°03' E 134°36'1 1.3
2017-Dec-01 12:21N 34°03' E 134°35'412.4
2017-Dec-01 12:00N 34°04' E 134°40'714.5
2017-Dec-01 11:31N 34°07' E 134°48'714.8
2017-Dec-01 11:00N 34°09' E 134°57'714.9
2017-Dec-01 10:30N 34°12' E 135°05'3 6.4
2017-Dec-01 10:00N 34°13' E 135°09'0 0.1
2017-Dec-01 09:31N 34°13' E 135°09'714.3
2017-Dec-01 09:01N 34°10' E 135°01'1116.4
2017-Dec-01 08:21N 34°06' E 134°49'716.3
2017-Dec-01 07:54N 34°04' E 134°40'4 4.0
2017-Dec-01 06:52N 34°03' E 134°35'512.3
2017-Dec-01 06:30N 34°04' E 134°41'714.8
2017-Dec-01 06:00N 34°07' E 134°48'714.3
2017-Dec-01 05:30N 34°11' E 134°56'713.1
2017-Dec-01 05:00N 34°13' E 135°04'4 8.3
2017-Dec-01 04:30N 34°13' E 135°09'0 0.0
2017-Dec-01 04:00N 34°13' E 135°09'  

Dump ship's entire track history